Time;durP1;ratioP1;P1;durP2;ratioP2;P2;SDS_P1;SDS_P2;PMS_P1;PMS_P2;Temp;Humidity;BMP_temperature;BMP_pressure;BME280_temperature;BME280_humidity;BME280_pressure;Samples;Min_cycle;Max_cycle;Signal;HPM_P1;HPM_P2
2022/08/08 00:02:23;;;;;;;8.50;4.40;;;;;;;11.58;100.00;98645.60;1773993;80;21094;-83
2022/08/08 00:05:00;;;;;;;6.33;5.03;;;;;;;11.58;100.00;98635.28;1776084;80;21002;-81
2022/08/08 00:07:50;;;;;;;8.73;4.50;;;;;;;11.61;100.00;98633.92;1773775;80;21093;-83
2022/08/08 00:10:53;;;;;;;6.30;4.50;;;;;;;11.60;100.00;98635.83;1774139;80;21530;-84
2022/08/08 00:13:33;;;;;;;7.25;5.05;;;;;;;11.60;100.00;98633.11;1774058;80;22126;-83
2022/08/08 00:16:07;;;;;;;9.05;4.70;;;;;;;11.56;100.00;98630.14;1775367;80;21962;-80
2022/08/08 00:19:12;;;;;;;6.15;4.35;;;;;;;11.58;100.00;98631.22;1736456;80;21087;-83
2022/08/08 00:21:43;;;;;;;6.08;4.25;;;;;;;11.58;100.00;98632.03;1774400;80;21030;-81
2022/08/08 00:24:14;;;;;;;7.87;4.35;;;;;;;11.63;100.00;98637.20;1763372;80;21100;-83
2022/08/08 00:26:43;;;;;;;8.28;4.53;;;;;;;11.65;100.00;98632.31;1738766;80;21064;-84
2022/08/08 00:29:26;;;;;;;6.95;4.05;;;;;;;11.65;100.00;98625.52;1741660;81;21829;-83
2022/08/08 00:31:59;;;;;;;8.35;4.05;;;;;;;11.64;100.00;98627.42;1828871;78;20958;-80
2022/08/08 00:35:14;;;;;;;9.98;4.30;;;;;;;11.61;100.00;98633.38;1826901;78;20984;-83
2022/08/08 00:38:29;;;;;;;9.18;3.92;;;;;;;11.62;100.00;98638.27;1817227;78;21078;-83
2022/08/08 00:41:24;;;;;;;6.75;4.00;;;;;;;11.64;100.00;98635.57;1739819;81;21557;-81
2022/08/08 00:44:22;;;;;;;8.15;4.25;;;;;;;11.62;100.00;98628.77;1821842;78;21986;-81
2022/08/08 00:46:59;;;;;;;7.67;4.12;;;;;;;11.68;100.00;98630.40;1822873;77;21110;-81
2022/08/08 00:49:40;;;;;;;8.18;4.87;;;;;;;11.68;100.00;98629.85;1809074;78;21016;-80
2022/08/08 00:52:37;;;;;;;6.08;4.72;;;;;;;11.73;100.00;98627.16;1824664;78;21681;-81
2022/08/08 00:55:44;;;;;;;4.75;4.10;;;;;;;11.81;100.00;98621.20;1825439;78;21078;-83
2022/08/08 00:58:50;;;;;;;7.50;4.10;;;;;;;11.82;100.00;98616.59;1824184;78;21043;-83
2022/08/08 01:01:41;;;;;;;6.10;4.42;;;;;;;11.83;100.00;98619.02;1797632;78;21084;-81
2022/08/08 01:04:34;;;;;;;7.12;3.90;;;;;;;11.82;100.00;98615.23;1815506;78;21086;-81
2022/08/08 01:07:42;;;;;;;7.40;4.85;;;;;;;11.80;100.00;98616.86;1823243;78;21039;-83
2022/08/08 01:10:35;;;;;;;7.75;4.28;;;;;;;11.82;100.00;98615.23;1824396;78;21099;-81
2022/08/08 01:13:23;;;;;;;4.85;3.33;;;;;;;11.82;100.00;98622.83;1824506;77;21951;-81
2022/08/08 01:16:00;;;;;;;6.30;3.58;;;;;;;11.79;100.00;98623.88;1824456;78;20997;-81
2022/08/08 01:18:54;;;;;;;7.72;4.20;;;;;;;11.77;100.00;98617.91;1824321;78;21062;-81
2022/08/08 01:21:53;;;;;;;5.92;4.08;;;;;;;11.74;100.00;98619.81;1817687;78;21094;-82
2022/08/08 01:24:53;;;;;;;7.28;4.97;;;;;;;11.71;100.00;98620.38;1817995;78;21479;-83
2022/08/08 01:27:41;;;;;;;7.00;3.87;;;;;;;11.72;100.00;98624.17;1737137;81;21569;-83
2022/08/08 01:30:43;;;;;;;6.60;4.10;;;;;;;11.71;100.00;98619.02;1789745;78;20999;-83
2022/08/08 01:33:44;;;;;;;4.10;3.37;;;;;;;11.67;100.00;98621.44;1824899;78;21451;-83
2022/08/08 01:36:59;;;;;;;5.10;4.17;;;;;;;11.68;100.00;98615.47;1826046;78;21529;-80
2022/08/08 01:40:20;;;;;;;6.15;3.85;;;;;;;11.68;100.00;98612.21;1823570;78;21036;-81
2022/08/08 01:42:54;;;;;;;5.72;4.17;;;;;;;11.70;100.00;98608.67;1824838;78;22140;-83
2022/08/08 01:45:55;;;;;;;6.47;3.67;;;;;;;11.72;100.00;98601.64;1792184;78;21606;-81
2022/08/08 01:48:45;;;;;;;7.10;3.67;;;;;;;11.71;100.00;98592.68;1823580;77;21022;-83
2022/08/08 01:51:31;;;;;;;4.97;3.50;;;;;;;11.72;100.00;98594.85;1824771;78;21052;-83
2022/08/08 01:54:40;;;;;;;8.25;4.10;;;;;;;11.72;100.00;98591.59;1825023;78;21030;-83
2022/08/08 01:57:30;;;;;;;7.00;4.80;;;;;;;11.76;100.00;98597.27;1823388;78;22736;-83
2022/08/08 02:00:31;;;;;;;4.25;3.30;;;;;;;11.81;100.00;98598.67;1824830;78;21125;-81
2022/08/08 02:03:29;;;;;;;5.33;3.58;;;;;;;11.83;100.00;98600.56;1824158;77;21431;-80
2022/08/08 02:06:34;;;;;;;5.20;4.17;;;;;;;11.83;100.00;98597.84;1825264;77;21058;-82
2022/08/08 02:09:12;;;;;;;5.50;3.90;;;;;;;11.84;100.00;98587.25;1823369;78;21629;-81
2022/08/08 02:11:46;;;;;;;10.68;5.08;;;;;;;11.79;100.00;98592.13;1825143;77;21279;-81
2022/08/08 02:14:39;;;;;;;6.62;3.65;;;;;;;11.82;100.00;98593.51;1824502;78;21016;-84
2022/08/08 02:17:19;;;;;;;8.33;4.25;;;;;;;11.82;100.00;98589.44;1824725;78;21082;-83
2022/08/08 02:19:58;;;;;;;5.42;3.90;;;;;;;11.80;100.00;98588.90;1824382;78;21515;-81
2022/08/08 02:22:53;;;;;;;9.10;4.58;;;;;;;11.78;100.00;98593.73;1824055;77;21019;-80
2022/08/08 02:25:40;;;;;;;4.60;3.60;;;;;;;11.74;100.00;98598.09;1822617;77;21673;-81
2022/08/08 02:28:34;;;;;;;5.97;4.00;;;;;;;11.72;100.00;98594.85;1824410;78;20936;-83
2022/08/08 02:31:24;;;;;;;7.42;3.87;;;;;;;11.72;100.00;98589.42;1812767;78;21058;-83
2022/08/08 02:34:18;;;;;;;9.48;4.22;;;;;;;11.74;100.00;98583.98;1824835;78;21736;-83
2022/08/08 02:37:01;;;;;;;5.10;3.70;;;;;;;11.76;100.00;98585.87;1823780;78;20928;-83
2022/08/08 02:40:09;;;;;;;5.72;3.30;;;;;;;11.76;100.00;98586.41;1797344;78;21154;-81
2022/08/08 02:43:23;;;;;;;6.97;3.40;;;;;;;11.73;100.00;98590.50;1815867;78;21011;-81
2022/08/08 02:46:20;;;;;;;5.65;3.92;;;;;;;11.69;100.00;98588.59;1813455;78;20944;-83
2022/08/08 02:49:29;;;;;;;5.60;3.77;;;;;;;11.71;100.00;98587.80;1813073;77;20999;-81
2022/08/08 02:52:36;;;;;;;7.30;3.85;;;;;;;11.75;100.00;98595.11;1824392;78;21535;-81
2022/08/08 02:55:39;;;;;;;7.30;4.03;;;;;;;11.81;100.00;98608.98;1824577;77;21156;-83
2022/08/08 02:58:29;;;;;;;7.60;4.28;;;;;;;11.88;100.00;98612.78;1828771;78;21064;-81
2022/08/08 03:01:15;;;;;;;5.50;4.00;;;;;;;11.92;100.00;98607.06;1829093;77;21003;-84
2022/08/08 03:04:32;;;;;;;9.53;4.22;;;;;;;11.95;100.00;98617.37;1829083;78;21462;-80
2022/08/08 03:07:15;;;;;;;4.60;3.75;;;;;;;12.00;100.00;98617.38;1828633;78;21069;-81
2022/08/08 03:10:37;;;;;;;10.48;4.25;;;;;;;12.01;100.00;98620.36;1823213;78;21344;-83
2022/08/08 03:13:29;;;;;;;7.00;3.77;;;;;;;12.03;100.00;98632.30;1805924;78;21116;-83
2022/08/08 03:16:32;;;;;;;8.38;3.50;;;;;;;12.01;100.00;98630.41;1819643;78;21463;-80
2022/08/08 03:19:12;;;;;;;7.30;3.45;;;;;;;11.98;100.00;98626.89;1823820;77;21019;-80
2022/08/08 03:21:38;;;;;;;5.60;3.60;;;;;;;12.03;100.00;98637.73;1824876;78;21004;-83
2022/08/08 03:24:04;;;;;;;6.42;4.22;;;;;;;12.04;100.00;98635.28;1824865;78;21270;-81
2022/08/08 03:26:31;;;;;;;8.25;4.25;;;;;;;12.06;100.00;98635.30;1824723;78;21378;-83
2022/08/08 03:29:03;;;;;;;6.78;4.00;;;;;;;12.08;100.00;98639.09;1824500;78;21437;-81
2022/08/08 03:34:14;;;;;;;5.53;4.05;;;;;;;12.08;100.00;98645.88;1825179;78;21542;-81
2022/08/08 03:36:41;;;;;;;6.35;4.45;;;;;;;12.06;100.00;98638.02;1824931;78;21419;-84
2022/08/08 03:39:10;;;;;;;5.20;4.08;;;;;;;12.11;100.00;98639.89;1824139;78;21106;-80
2022/08/08 03:41:36;;;;;;;6.60;4.20;;;;;;;12.14;100.00;98640.72;1825198;78;21024;-80
2022/08/08 03:44:02;;;;;;;7.50;4.47;;;;;;;12.20;100.00;98637.42;1821381;78;21025;-83
2022/08/08 03:46:28;;;;;;;6.67;4.20;;;;;;;12.21;100.00;98639.05;1826486;78;21517;-81
2022/08/08 03:48:56;;;;;;;7.40;4.50;;;;;;;12.25;100.00;98632.81;1821671;77;21465;-83
2022/08/08 03:51:23;;;;;;;10.25;5.33;;;;;;;12.27;100.00;98626.55;1820976;78;21474;-84
2022/08/08 03:53:53;;;;;;;8.95;4.90;;;;;;;12.29;100.00;98627.08;1744596;81;21210;-81
2022/08/08 03:56:19;;;;;;;7.37;3.98;;;;;;;12.28;100.00;98630.08;1742490;81;21050;-83
2022/08/08 03:58:49;;;;;;;8.38;4.72;;;;;;;12.24;100.00;98633.90;1751680;81;21104;-82
2022/08/08 04:01:15;;;;;;;9.20;3.50;;;;;;;12.21;100.00;98641.23;1775132;79;21099;-80
2022/08/08 04:03:44;;;;;;;5.72;3.80;;;;;;;12.22;100.00;98646.95;1770263;80;21042;-81
2022/08/08 04:06:10;;;;;;;;;;;;;;;12.24;100.00;98643.95;1764753;80;21837;-84
2022/08/08 04:08:36;;;;;;;9.68;4.40;;;;;;;12.24;100.00;98644.77;1762162;81;20179;-81
2022/08/08 04:11:03;;;;;;;10.63;4.40;;;;;;;12.27;100.00;98636.06;1736926;81;21581;-83
2022/08/08 04:13:29;;;;;;;7.03;4.25;;;;;;;12.33;100.00;98645.83;1820181;78;21825;-83
2022/08/08 04:15:55;;;;;;;5.67;3.75;;;;;;;12.35;100.00;98643.64;1822280;78;21553;-84
2022/08/08 04:18:21;;;;;;;6.40;4.45;;;;;;;12.35;100.00;98645.00;1739161;81;21647;-81
2022/08/08 04:20:47;;;;;;;5.83;3.75;;;;;;;12.37;100.00;98646.08;1775668;80;21061;-81
2022/08/08 04:23:13;;;;;;;5.78;4.08;;;;;;;12.38;100.00;98649.88;1774281;80;20887;-82
2022/08/08 04:25:39;;;;;;;4.90;3.60;;;;;;;12.38;100.00;98649.06;1761745;80;20991;-81
2022/08/08 04:28:05;;;;;;;6.80;4.12;;;;;;;12.38;100.00;98643.63;1746866;80;21423;-81
2022/08/08 04:30:31;;;;;;;7.67;4.25;;;;;;;12.43;100.00;98639.00;1776733;80;21026;-83
2022/08/08 04:32:57;;;;;;;8.20;4.20;;;;;;;12.43;100.00;98647.16;1780566;80;21074;-81
2022/08/08 04:35:23;;;;;;;8.28;4.15;;;;;;;12.44;100.00;98643.89;1759652;80;21097;-81
2022/08/08 04:37:51;;;;;;;7.10;3.92;;;;;;;12.44;100.00;98650.69;1780200;80;21872;-81
2022/08/08 04:40:17;;;;;;;5.83;3.85;;;;;;;12.45;100.00;98650.14;1777650;80;21113;-81
2022/08/08 04:42:43;;;;;;;5.12;4.15;;;;;;;12.45;100.00;98653.67;1780847;80;20979;-84
2022/08/08 04:45:09;;;;;;;6.35;3.75;;;;;;;12.47;100.00;98650.13;1761713;80;21072;-80
2022/08/08 04:47:35;;;;;;;5.17;4.47;;;;;;;12.51;100.00;98658.56;1764256;80;21040;-83
2022/08/08 04:50:01;;;;;;;7.30;4.35;;;;;;;12.53;100.00;98653.66;1773438;80;21294;-83
2022/08/08 04:52:27;;;;;;;9.28;3.98;;;;;;;12.59;100.00;98659.34;1780509;80;20922;-84
2022/08/08 04:54:53;;;;;;;6.08;3.62;;;;;;;12.63;100.00;98656.33;1746134;80;21475;-81
2022/08/08 04:57:19;;;;;;;15.72;5.10;;;;;;;12.70;100.00;98653.59;1771137;80;21482;-83
2022/08/08 04:59:45;;;;;;;11.40;5.20;;;;;;;12.75;100.00;98653.31;1739203;79;20902;-81
2022/08/08 05:02:11;;;;;;;14.35;5.90;;;;;;;12.75;100.00;98654.67;1753911;81;21043;-81
2022/08/08 05:04:37;;;;;;;10.93;5.30;;;;;;;12.77;100.00;98657.92;1767397;80;20882;-81
2022/08/08 05:07:03;;;;;;;11.38;6.10;;;;;;;12.80;100.00;98657.35;1773507;80;20925;-81
2022/08/08 05:09:29;;;;;;;8.20;4.97;;;;;;;12.86;100.00;98658.97;1743444;81;21093;-80
2022/08/08 05:11:55;;;;;;;8.13;5.33;;;;;;;12.92;100.00;98668.74;1806741;78;20955;-82
2022/08/08 05:14:21;;;;;;;6.45;5.10;;;;;;;12.92;100.00;98660.03;1809564;78;22002;-81
2022/08/08 05:16:47;;;;;;;8.75;5.25;;;;;;;12.94;100.00;98659.75;1824541;78;21575;-83
2022/08/08 05:19:13;;;;;;;7.37;3.87;;;;;;;13.00;100.00;98665.44;1823449;78;20968;-83
2022/08/08 05:21:40;;;;;;;5.65;4.53;;;;;;;12.97;100.00;98667.34;1805480;76;21108;-84
2022/08/08 05:24:07;;;;;;;5.50;4.28;;;;;;;13.03;100.00;98668.95;1806029;77;20996;-84
2022/08/08 05:26:35;;;;;;;6.58;4.47;;;;;;;13.03;100.00;98670.31;1824823;78;21468;-84
2022/08/08 05:29:02;;;;;;;6.53;4.53;;;;;;;13.04;100.00;98663.77;1824090;78;21152;-81
2022/08/08 05:31:30;;;;;;;10.78;3.98;;;;;;;13.07;100.00;98661.84;1777454;78;21484;-82
2022/08/08 05:33:56;;;;;;;5.28;4.35;;;;;;;13.11;100.00;98658.84;1774785;78;20991;-81
2022/08/08 05:36:24;;;;;;;7.22;4.95;;;;;;;13.13;100.00;98666.72;1822888;76;21109;-84
2022/08/08 05:38:51;;;;;;;8.20;6.12;;;;;;;13.15;100.00;98674.05;1785720;78;51684;-84
2022/08/08 05:41:24;;;;;;;20.35;10.58;;;;;;;13.26;100.00;98680.56;1818478;76;21583;-81
2022/08/08 05:43:50;;;;;;;14.40;8.28;;;;;;;13.39;100.00;98691.36;1829936;77;21458;-81
2022/08/08 05:46:16;;;;;;;13.28;9.73;;;;;;;13.46;100.00;98682.34;1796531;78;21766;-84
2022/08/08 05:48:42;;;;;;;14.05;9.38;;;;;;;13.53;100.00;98684.75;1821715;77;21639;-80
2022/08/08 05:51:08;;;;;;;12.88;9.50;;;;;;;13.58;100.00;98692.87;1821186;78;21263;-83
2022/08/08 05:53:34;;;;;;;14.70;9.08;;;;;;;13.63;100.00;98692.03;1815601;78;21031;-83
2022/08/08 05:56:01;;;;;;;10.15;7.78;;;;;;;13.67;100.00;98699.37;1825288;78;20872;-81
2022/08/08 05:58:30;;;;;;;15.50;7.97;;;;;;;13.66;100.00;98694.99;1829940;76;21164;-84
2022/08/08 06:00:57;;;;;;;13.25;8.28;;;;;;;13.71;100.00;98699.60;1820903;76;22480;-80
2022/08/08 06:03:23;;;;;;;12.10;8.00;;;;;;;13.78;100.00;98702.27;1814176;77;21304;-81
2022/08/08 06:06:05;;;;;;;9.43;6.65;;;;;;;13.83;100.00;98696.77;1807260;77;21020;-84
2022/08/08 06:08:45;;;;;;;10.85;6.97;;;;;;;13.90;100.00;98701.91;1811518;77;23075;-84
2022/08/08 06:11:11;;;;;;;16.42;7.25;;;;;;;13.93;100.00;98704.59;1813389;77;21042;-82
2022/08/08 06:13:37;;;;;;;13.03;7.25;;;;;;;13.94;100.00;98702.97;1815457;77;20874;-81
2022/08/08 06:16:04;;;;;;;11.22;6.70;;;;;;;14.01;100.00;98702.07;1801440;77;21132;-80
2022/08/08 06:18:30;;;;;;;9.95;6.37;;;;;;;14.06;100.00;98695.23;1825060;77;21054;-80
2022/08/08 06:20:59;;;;;;;11.35;5.92;;;;;;;14.11;100.00;98702.56;1826014;77;20929;-84
2022/08/08 06:23:26;;;;;;;9.68;5.47;;;;;;;14.15;100.00;98698.15;1817402;77;20983;-80
2022/08/08 06:26:04;;;;;;;9.05;6.83;;;;;;;14.25;100.00;98698.05;1817021;77;22904;-81
2022/08/08 06:28:52;;;;;;;8.90;5.50;;;;;;;14.41;100.00;98698.72;1806296;77;21869;-84
2022/08/08 06:31:21;;;;;;;8.85;5.78;;;;;;;14.60;100.00;98705.64;1768803;80;21080;-84
2022/08/08 06:34:07;;;;;;;9.50;6.35;;;;;;;14.65;100.00;98709.13;1763323;78;21480;-84
2022/08/08 06:36:37;;;;;;;10.18;5.50;;;;;;;14.76;100.00;98703.56;1735203;80;21058;-84
2022/08/08 06:39:04;;;;;;;7.95;4.72;;;;;;;14.85;100.00;98704.55;1770615;78;21109;-81
2022/08/08 06:41:33;;;;;;;6.35;5.28;;;;;;;14.87;100.00;98702.36;1816545;76;21105;-82
2022/08/08 06:44:01;;;;;;;;;;;;;;;14.93;99.61;98708.81;1832997;77;21437;-85
2022/08/08 06:46:28;;;;;;;6.20;3.80;;;;;;;14.98;99.21;98707.95;1800471;77;20530;-82
2022/08/08 06:48:55;;;;;;;6.50;3.77;;;;;;;14.98;98.16;98718.05;1785887;78;21032;-82
2022/08/08 06:51:21;;;;;;;6.17;3.20;;;;;;;15.04;98.06;98717.70;1766054;79;21009;-82
2022/08/08 06:53:47;;;;;;;6.50;4.15;;;;;;;15.16;97.08;98718.64;1768371;78;20978;-82
2022/08/08 06:56:13;;;;;;;4.97;3.98;;;;;;;15.30;96.42;98718.75;1756996;79;21076;-85
2022/08/08 06:58:39;;;;;;;10.20;4.15;;;;;;;15.48;97.46;98710.56;1787344;78;21052;-82
2022/08/08 07:01:07;;;;;;;7.65;3.83;;;;;;;15.72;97.67;98715.14;1779479;78;20935;-85
2022/08/08 07:03:55;;;;;;;7.45;3.85;;;;;;;15.84;97.09;98719.63;1814844;78;21549;-82
2022/08/08 07:06:24;;;;;;;7.42;2.77;;;;;;;16.05;97.41;98717.36;1814668;78;21273;-85
2022/08/08 07:08:52;;;;;;;4.60;3.33;;;;;;;16.27;93.60;98724.94;1815232;76;21054;-82
2022/08/08 07:11:21;;;;;;;6.90;3.05;;;;;;;16.46;94.32;98722.14;1819845;76;20947;-85
2022/08/08 07:13:51;;;;;;;;;;;;;;;16.61;92.22;98724.05;1812503;78;20944;-83
2022/08/08 07:16:30;;;;;;;8.00;3.77;;;;;;;16.82;93.70;98720.39;1818578;76;20211;-85
2022/08/08 07:19:11;;;;;;;6.60;4.17;;;;;;;17.13;93.88;98712.94;1823805;77;21569;-82
2022/08/08 07:21:49;;;;;;;10.90;3.87;;;;;;;17.38;91.41;98713.77;1815990;78;21415;-85
2022/08/08 07:24:20;;;;;;;9.83;3.90;;;;;;;17.29;91.61;98712.06;1816918;77;26627;-82
2022/08/08 07:26:46;;;;;;;6.50;4.22;;;;;;;17.25;90.99;98711.84;1838814;77;20955;-82
2022/08/08 07:29:12;;;;;;;6.97;3.87;;;;;;;17.29;90.66;98711.50;1788058;78;21069;-85
2022/08/08 07:31:38;;;;;;;6.62;4.15;;;;;;;17.24;89.38;98708.05;1765543;79;21054;-86
2022/08/08 07:34:04;;;;;;;6.22;3.77;;;;;;;17.18;88.29;98707.37;1773840;78;20917;-85
2022/08/08 07:36:30;;;;;;;6.55;3.72;;;;;;;17.13;86.85;98712.37;1812987;76;21561;-85
2022/08/08 07:38:56;;;;;;;5.40;3.27;;;;;;;17.47;87.22;98713.29;1818718;77;21528;-82
2022/08/08 07:41:22;;;;;;;6.22;3.22;;;;;;;18.01;84.07;98710.13;1823006;76;20954;-86
2022/08/08 07:43:48;;;;;;;7.25;3.58;;;;;;;18.60;82.93;98716.88;1796404;77;21279;-86
2022/08/08 07:46:14;;;;;;;3.90;2.60;;;;;;;19.15;79.82;98719.23;1808406;78;20918;-83
2022/08/08 07:48:40;;;;;;;8.20;2.37;;;;;;;19.40;74.94;98715.74;1811535;76;20923;-86
2022/08/08 07:51:08;;;;;;;4.55;2.58;;;;;;;20.18;79.72;98713.03;1814285;78;21503;-82
2022/08/08 07:53:58;;;;;;;3.85;2.60;;;;;;;20.80;79.51;98716.69;1819430;78;21107;-83
2022/08/08 07:56:25;;;;;;;3.45;2.50;;;;;;;21.23;77.46;98722.56;1758230;80;21899;-82
2022/08/08 07:58:52;;;;;;;3.60;2.33;;;;;;;21.88;77.62;98720.39;1771857;78;21165;-82
2022/08/08 08:01:21;;;;;;;6.92;2.37;;;;;;;21.95;75.59;98724.19;1774341;78;21067;-83
2022/08/08 08:04:05;;;;;;;;;;;;;;;21.73;73.31;98732.83;1784209;78;20926;-86
2022/08/08 08:06:32;;;;;;;5.92;2.62;;;;;;;21.66;72.41;98728.41;1778185;78;20180;-82
2022/08/08 08:09:12;;;;;;;4.40;2.90;;;;;;;22.17;74.18;98723.64;1782729;78;21122;-87
2022/08/08 08:11:41;;;;;;;5.58;2.87;;;;;;;22.43;68.26;98717.28;1771720;78;21075;-87
2022/08/08 08:14:07;;;;;;;5.58;2.42;;;;;;;22.16;66.93;98726.17;1783333;78;21044;-83
2022/08/08 08:16:40;;;;;;;4.28;2.62;;;;;;;22.08;66.67;98722.34;1808608;76;21534;-86
2022/08/08 08:19:09;;;;;;;7.33;3.05;;;;;;;22.06;66.95;98724.61;1802576;78;21046;-83
2022/08/08 08:21:46;;;;;;;4.50;2.52;;;;;;;22.14;67.74;98725.13;1826549;77;21272;-82
2022/08/08 08:24:12;;;;;;;3.05;1.98;;;;;;;22.13;65.93;98723.52;1818220;76;21089;-86
2022/08/08 08:26:38;;;;;;;4.45;2.50;;;;;;;22.56;66.78;98720.90;1811285;76;21008;-83
2022/08/08 08:29:04;;;;;;;7.85;2.70;;;;;;;23.11;67.08;98718.80;1807659;77;21493;-86
2022/08/08 08:31:31;;;;;;;5.92;2.35;;;;;;;23.55;64.91;98719.80;1815090;76;21530;-86
2022/08/08 08:33:56;;;;;;;6.05;2.20;;;;;;;23.38;59.89;98721.43;1849457;76;21129;-83
2022/08/08 08:36:23;;;;;;;4.20;1.75;;;;;;;23.34;58.68;98724.09;1819670;77;20935;-84
2022/08/08 08:38:49;;;;;;;5.87;1.80;;;;;;;23.76;62.68;98726.59;1817506;78;21418;-87
2022/08/08 08:41:17;;;;;;;4.40;2.27;;;;;;;23.77;58.65;98720.70;1812208;77;20974;-83
2022/08/08 08:43:45;;;;;;;5.83;2.60;;;;;;;23.78;61.53;98724.28;1792532;78;21043;-83
2022/08/08 08:46:11;;;;;;;4.12;2.10;;;;;;;24.51;59.02;98723.99;1822731;76;21686;-87
2022/08/08 08:48:40;;;;;;;4.47;2.00;;;;;;;24.87;58.53;98717.44;1809430;78;21042;-88
2022/08/08 08:51:10;;;;;;;6.17;1.80;;;;;;;25.72;56.06;98718.72;1812611;77;21147;-84
2022/08/08 08:53:51;;;;;;;8.10;2.17;;;;;;;25.78;54.22;98718.63;1821278;76;21092;-85
2022/08/08 08:56:19;;;;;;;3.87;1.75;;;;;;;25.24;50.74;98712.43;1805452;77;21455;-83
2022/08/08 08:58:49;;;;;;;6.08;1.92;;;;;;;24.74;51.49;98708.39;1821369;76;21124;-84
2022/08/08 09:01:22;;;;;;;3.12;1.57;;;;;;;25.09;53.53;98713.83;1826505;76;21097;-84
2022/08/08 09:03:49;;;;;;;3.05;1.17;;;;;;;25.37;51.32;98715.88;1796054;76;22111;-89
2022/08/08 09:06:20;;;;;;;4.50;1.10;;;;;;;25.79;49.22;98713.87;1820895;76;21018;-88
2022/08/08 09:08:51;;;;;;;3.35;0.88;;;;;;;26.03;41.88;98719.74;1815041;78;21013;-86
2022/08/08 09:11:17;;;;;;;3.72;1.37;;;;;;;25.39;43.02;98728.03;1822656;78;21315;-86
2022/08/08 09:13:43;;;;;;;3.80;1.20;;;;;;;25.00;42.07;98725.88;1814476;76;20977;-83
2022/08/08 09:16:09;;;;;;;4.65;1.52;;;;;;;24.46;42.81;98720.92;1814461;76;20922;-83
2022/08/08 09:18:35;;;;;;;1.60;0.90;;;;;;;24.25;42.46;98724.44;1811059;77;20998;-82
2022/08/08 09:21:02;;;;;;;4.65;0.90;;;;;;;23.89;43.29;98729.55;1813938;77;20852;-86
2022/08/08 09:23:31;;;;;;;2.27;0.70;;;;;;;23.86;43.97;98732.44;1813244;76;21018;-82
2022/08/08 09:26:08;;;;;;;3.62;1.30;;;;;;;24.11;44.03;98719.91;1817556;77;21042;-83
2022/08/08 09:28:38;;;;;;;3.83;1.47;;;;;;;24.12;44.48;98720.13;1817856;77;21038;-86
2022/08/08 09:31:14;;;;;;;2.90;1.90;;;;;;;25.26;44.22;98719.00;1830410;77;21025;-86
2022/08/08 09:33:45;;;;;;;1.72;1.15;;;;;;;26.27;40.59;98711.11;1791949;77;21082;-83
2022/08/08 09:36:21;;;;;;;2.65;1.40;;;;;;;27.54;38.61;98713.14;1820166;77;21882;-86
2022/08/08 09:38:55;;;;;;;8.63;2.27;;;;;;;28.76;37.17;98711.85;1829339;76;21109;-83
2022/08/08 09:41:33;;;;;;;9.95;2.12;;;;;;;29.74;35.01;98706.88;1816501;77;21018;-83
2022/08/08 09:44:14;;;;;;;2.52;1.20;;;;;;;29.99;33.09;98707.56;1831032;77;28093;-83
2022/08/08 09:46:40;;;;;;;2.00;1.40;;;;;;;29.06;33.71;98704.79;1828146;76;21017;-83
2022/08/08 09:49:07;;;;;;;2.70;0.85;;;;;;;28.62;33.96;98691.59;1816491;76;21183;-87
2022/08/08 09:51:33;;;;;;;5.03;1.05;;;;;;;28.61;34.61;98696.96;1830231;77;21023;-86
2022/08/08 09:54:02;;;;;;;2.33;1.05;;;;;;;26.83;36.10;98684.75;1830207;76;21097;-86
2022/08/08 09:56:34;;;;;;;5.45;0.78;;;;;;;26.48;35.09;98694.66;1818152;77;21007;-87
2022/08/08 09:59:02;;;;;;;2.50;0.90;;;;;;;26.61;34.07;98698.88;1815698;76;21066;-87
2022/08/08 10:01:28;;;;;;;;;;;;;;;26.92;35.59;98696.45;1825112;76;21136;-87
2022/08/08 10:03:54;;;;;;;3.35;0.70;;;;;;;26.47;34.82;98699.41;1825353;76;20182;-84
2022/08/08 10:06:20;;;;;;;2.87;0.60;;;;;;;26.27;34.75;98697.81;1820782;76;20874;-85
2022/08/08 10:08:48;;;;;;;1.75;1.02;;;;;;;26.50;33.49;98704.84;1811972;76;21099;-90
2022/08/08 10:11:17;;;;;;;3.27;0.98;;;;;;;26.01;33.96;98699.29;1809334;76;21421;-91
2022/08/08 10:13:54;;;;;;;3.30;0.88;;;;;;;26.92;34.17;98701.42;1809274;76;21038;-90
2022/08/08 10:16:20;;;;;;;4.70;1.80;;;;;;;27.91;31.42;98700.53;1809645;76;21019;-85
2022/08/08 10:18:46;;;;;;;2.60;0.90;;;;;;;28.80;29.44;98707.09;1810069;77;21791;-89
2022/08/08 10:21:17;;;;;;;2.27;0.82;;;;;;;29.38;29.72;98705.80;1832995;76;21124;-90
2022/08/08 10:23:48;;;;;;;2.83;0.80;;;;;;;29.36;29.81;98705.99;1815544;77;21073;-90
2022/08/08 10:26:39;;;;;;;2.12;0.65;;;;;;;29.87;28.53;98696.75;1824012;76;21054;-85
2022/08/08 10:29:10;;;;;;;3.02;0.70;;;;;;;31.31;28.11;98691.09;1796412;78;21018;-85
2022/08/08 10:34:24;;;;;;;2.52;0.82;;;;;;;31.57;25.99;98686.44;1827269;77;21042;-90
2022/08/08 10:36:51;;;;;;;3.40;1.25;;;;;;;32.28;26.67;98684.77;1814470;77;21085;-91
2022/08/08 10:39:24;;;;;;;5.03;1.80;;;;;;;32.54;25.43;98682.64;1807743;76;21669;-86
2022/08/08 10:42:01;;;;;;;2.83;1.07;;;;;;;28.89;29.04;98685.29;1812500;77;20998;-90
2022/08/08 10:44:34;;;;;;;9.65;1.10;;;;;;;29.15;29.50;98685.73;1827213;76;21013;-85
2022/08/08 10:47:16;;;;;;;3.90;1.02;;;;;;;29.51;29.53;98688.78;1821305;77;21462;-84
2022/08/08 10:50:02;;;;;;;2.40;1.20;;;;;;;26.94;32.60;98696.88;1809310;77;21014;-83
2022/08/08 10:52:38;;;;;;;2.75;1.00;;;;;;;26.23;33.76;98687.20;1812263;77;22047;-84
2022/08/08 10:55:08;;;;;;;2.12;0.90;;;;;;;28.25;32.05;98687.41;1811923;76;21199;-86
2022/08/08 10:57:48;;;;;;;1.98;0.98;;;;;;;30.04;29.26;98693.23;1810436;78;20971;-90
2022/08/08 11:00:21;;;;;;;2.20;0.80;;;;;;;30.26;29.38;98691.35;1818158;76;21388;-84
2022/08/08 11:02:47;;;;;;;2.42;0.82;;;;;;;29.30;30.67;98689.39;1817847;76;20991;-89
2022/08/08 11:05:13;;;;;;;5.30;1.57;;;;;;;30.77;28.64;98690.28;1815784;77;20993;-85
2022/08/08 11:07:50;;;;;;;3.52;0.80;;;;;;;29.63;29.85;98685.65;1812258;76;21136;-85
2022/08/08 11:10:20;;;;;;;1.98;0.93;;;;;;;29.20;29.59;98692.32;1811406;77;21038;-85
2022/08/08 11:12:55;;;;;;;3.98;1.10;;;;;;;30.89;29.14;98686.48;1815086;76;21034;-88
2022/08/08 11:15:27;;;;;;;4.83;1.40;;;;;;;31.88;27.55;98684.78;1812959;76;21023;-89
2022/08/08 11:17:53;;;;;;;7.85;1.07;;;;;;;30.68;27.26;98687.88;1818488;76;21113;-90
2022/08/08 11:20:24;;;;;;;2.67;1.10;;;;;;;30.94;28.65;98687.30;1814426;76;21534;-89
2022/08/08 11:22:53;;;;;;;1.90;0.90;;;;;;;30.77;27.97;98682.69;1820494;77;21492;-86
2022/08/08 11:25:26;;;;;;;3.55;1.25;;;;;;;30.08;28.00;98680.69;1826142;76;20931;-85
2022/08/08 11:27:57;;;;;;;3.92;1.02;;;;;;;29.42;30.06;98682.92;1819476;76;21613;-85
2022/08/08 11:30:25;;;;;;;4.17;0.80;;;;;;;27.72;31.43;98686.17;1812160;76;21130;-87
2022/08/08 11:32:54;;;;;;;;;;;;;;;26.10;33.23;98687.38;1788442;78;20959;-87
2022/08/08 11:35:20;;;;;;;5.08;2.25;;;;;;;25.92;33.79;98690.97;1795797;78;20247;-83
2022/08/08 11:37:46;;;;;;;2.87;0.82;;;;;;;24.79;36.51;98687.94;1828016;77;21058;-83
2022/08/08 11:40:13;;;;;;;2.47;1.00;;;;;;;23.60;38.09;98694.12;1761879;79;20967;-87
2022/08/08 11:42:40;;;;;;;3.83;0.90;;;;;;;23.37;38.17;98694.36;1821783;76;21719;-86
2022/08/08 11:45:08;;;;;;;2.27;0.65;;;;;;;23.63;38.75;98688.46;1823771;76;20987;-83
2022/08/08 11:47:35;;;;;;;5.03;1.20;;;;;;;23.99;37.28;98692.26;1816440;76;21043;-83
2022/08/08 11:50:11;;;;;;;4.12;0.95;;;;;;;23.63;39.03;98681.55;1822160;76;21011;-84
2022/08/08 11:52:37;;;;;;;6.03;0.90;;;;;;;23.71;39.12;98686.13;1822550;77;20940;-87
2022/08/08 11:55:25;;;;;;;5.30;0.90;;;;;;;24.34;38.11;98697.42;1832471;77;21210;-84
2022/08/08 11:57:47;;;;;;;3.45;0.80;;;;;;;25.91;35.23;98679.64;1817131;77;21037;-84
2022/08/08 12:00:16;;;;;;;2.20;0.98;;;;;;;26.10;35.77;98674.87;1808307;77;21010;-87
2022/08/08 12:02:53;;;;;;;5.08;1.27;;;;;;;26.21;35.95;98677.05;1817056;77;21703;-85
2022/08/08 12:05:18;;;;;;;2.75;0.88;;;;;;;25.36;37.29;98682.97;1829083;77;21035;-87
2022/08/08 12:07:53;;;;;;;3.40;1.42;;;;;;;24.41;38.36;98678.82;1816124;77;21283;-84
2022/08/08 12:10:21;;;;;;;3.05;0.98;;;;;;;24.19;39.55;98677.42;1815430;77;21030;-85
2022/08/08 12:12:48;;;;;;;4.92;1.62;;;;;;;23.78;40.03;98680.01;1784865;78;21467;-84